createdAt,value
2023-01-03T01:34:58.778Z,3.88
2023-01-03T01:37:25.242Z,3.00
2023-01-03T01:39:52.400Z,3.92
2023-01-03T01:42:37.521Z,3.45
2023-01-03T01:45:12.498Z,3.17
2023-01-03T01:47:46.071Z,3.63
2023-01-03T01:50:39.273Z,4.60
2023-01-03T01:53:31.348Z,3.63
2023-01-03T01:56:11.069Z,3.67
2023-01-03T01:58:39.415Z,3.80
2023-01-03T02:01:09.794Z,4.47
2023-01-03T02:03:36.716Z,3.50
2023-01-03T02:06:06.594Z,3.40
2023-01-03T02:08:33.105Z,3.80
2023-01-03T02:11:11.619Z,5.72
2023-01-03T02:13:40.781Z,3.80
2023-01-03T02:16:38.188Z,4.00
2023-01-03T02:19:32.431Z,4.68
2023-01-03T02:22:17.745Z,5.47
2023-01-03T02:25:03.103Z,4.60
2023-01-03T02:28:12.602Z,6.22
2023-01-03T02:30:47.185Z,5.38
2023-01-03T02:33:29.082Z,4.18
2023-01-03T02:36:09.768Z,4.53
2023-01-03T02:38:48.331Z,4.90
2023-01-03T02:41:51.968Z,3.95
2023-01-03T02:44:23.756Z,5.20
2023-01-03T02:47:01.024Z,6.10
2023-01-03T02:49:35.562Z,4.05
2023-01-03T02:52:05.230Z,4.57
2023-01-03T02:54:38.680Z,4.18
2023-01-03T02:57:10.332Z,5.97
2023-01-03T02:59:50.042Z,5.53
2023-01-03T03:02:18.119Z,4.15
2023-01-03T03:04:46.514Z,5.22
2023-01-03T03:07:25.113Z,4.38
2023-01-03T03:10:10.138Z,5.47
2023-01-03T03:12:57.451Z,5.75
2023-01-03T03:15:28.485Z,4.72
2023-01-03T03:17:58.167Z,4.03
2023-01-03T03:20:43.413Z,4.78
2023-01-03T03:23:31.267Z,4.05
2023-01-03T03:26:06.881Z,4.28
2023-01-03T03:28:39.330Z,4.55
2023-01-03T03:31:13.199Z,6.05
2023-01-03T03:33:46.029Z,4.43
2023-01-03T03:36:52.101Z,4.28
2023-01-03T03:39:37.233Z,4.00
2023-01-03T03:42:34.323Z,5.75
2023-01-03T03:45:04.320Z,5.78
2023-01-03T03:47:39.449Z,5.88
2023-01-03T03:50:22.682Z,5.47
2023-01-03T03:52:51.882Z,4.13
2023-01-03T03:55:25.149Z,5.60
2023-01-03T03:58:01.490Z,4.20
2023-01-03T04:00:32.144Z,3.83
2023-01-03T04:03:01.173Z,4.05
2023-01-03T04:05:32.348Z,4.60
2023-01-03T04:07:59.023Z,4.30
2023-01-03T04:10:25.692Z,4.22
2023-01-03T04:12:52.378Z,4.85
2023-01-03T04:15:19.376Z,4.43
2023-01-03T04:17:46.030Z,3.92
2023-01-03T04:20:13.163Z,4.88
2023-01-03T04:22:39.705Z,6.45
2023-01-03T04:25:06.779Z,4.25
2023-01-03T04:27:33.706Z,4.38
2023-01-03T04:30:00.308Z,5.72
2023-01-03T04:32:27.012Z,3.75
2023-01-03T04:34:53.554Z,5.05
2023-01-03T04:37:20.225Z,4.68
2023-01-03T04:39:46.769Z,4.97
2023-01-03T04:42:31.980Z,3.72
2023-01-03T04:44:58.546Z,4.32
2023-01-03T04:47:27.387Z,4.40
2023-01-03T04:49:53.925Z,4.95
2023-01-03T04:52:20.664Z,4.57
2023-01-03T04:54:47.261Z,4.75
2023-01-03T04:57:13.814Z,5.78
2023-01-03T04:59:40.371Z,4.75
2023-01-03T05:02:07.174Z,5.00
2023-01-03T05:04:34.473Z,4.53
2023-01-03T05:07:00.950Z,3.42
2023-01-03T05:09:27.723Z,4.60
2023-01-03T05:11:54.614Z,3.42
2023-01-03T05:14:21.133Z,3.65
2023-01-03T05:16:47.732Z,4.18
2023-01-03T05:19:14.312Z,3.90
2023-01-03T05:21:59.266Z,7.03
2023-01-03T05:24:44.543Z,6.45
2023-01-03T05:27:11.275Z,3.30
2023-01-03T05:29:37.989Z,3.42
2023-01-03T05:32:04.989Z,3.55
2023-01-03T05:34:31.650Z,3.15
2023-01-03T05:36:58.219Z,3.67
2023-01-03T05:39:24.831Z,3.22
2023-01-03T05:42:00.125Z,2.70
2023-01-03T05:44:27.867Z,4.00
2023-01-03T05:46:54.406Z,3.28
2023-01-03T05:49:20.934Z,3.50
2023-01-03T05:51:47.576Z,3.13
2023-01-03T05:54:15.747Z,2.85
2023-01-03T05:56:42.263Z,2.10
2023-01-03T05:59:08.914Z,3.47
2023-01-03T06:01:35.716Z,2.53
2023-01-03T06:04:02.511Z,2.63
2023-01-03T06:06:29.103Z,2.45
2023-01-03T06:08:56.105Z,2.95
2023-01-03T06:11:23.235Z,2.50
2023-01-03T06:13:49.780Z,2.53
2023-01-03T06:16:37.247Z,2.47
2023-01-03T06:19:05.500Z,3.28
2023-01-03T06:21:32.080Z,2.88
2023-01-03T06:23:58.684Z,2.15
2023-01-03T06:26:25.296Z,2.55
2023-01-03T06:28:51.993Z,2.53
2023-01-03T06:31:18.944Z,2.40
2023-01-03T06:33:45.841Z,2.38
2023-01-03T06:36:15.267Z,2.53
2023-01-03T06:38:41.883Z,2.58
2023-01-03T06:41:08.880Z,2.85
2023-01-03T06:43:35.520Z,3.88
2023-01-03T06:46:21.309Z,2.58
2023-01-03T06:49:06.342Z,2.50
2023-01-03T06:51:52.099Z,2.75
2023-01-03T06:54:33.433Z,3.50
2023-01-03T06:57:00.165Z,2.53
2023-01-03T06:59:27.473Z,2.63
2023-01-03T07:01:54.764Z,2.22
2023-01-03T07:04:23.078Z,3.03
2023-01-03T07:06:49.713Z,2.78
2023-01-03T07:09:16.776Z,2.75
2023-01-03T07:11:43.420Z,2.25
2023-01-03T07:14:11.141Z,2.05
2023-01-03T07:16:48.016Z,2.85
2023-01-03T07:19:17.272Z,2.78
2023-01-03T07:21:44.045Z,2.58
2023-01-03T07:24:15.381Z,2.08
2023-01-03T07:26:41.945Z,2.45
2023-01-03T07:29:10.140Z,2.22
2023-01-03T07:31:41.369Z,2.78
2023-01-03T07:34:08.854Z,2.10
2023-01-03T07:36:35.568Z,2.50
2023-01-03T07:39:02.272Z,2.33
2023-01-03T07:41:48.759Z,1.88
2023-01-03T07:44:15.314Z,2.15
2023-01-03T07:46:41.917Z,1.95
2023-01-03T07:49:12.041Z,1.60
2023-01-03T07:51:39.498Z,1.92
2023-01-03T07:54:07.553Z,2.13
2023-01-03T07:56:34.469Z,2.15
2023-01-03T07:59:01.102Z,2.13
2023-01-03T08:01:29.665Z,1.88
2023-01-03T08:03:56.285Z,2.25
2023-01-03T08:06:23.770Z,3.65
2023-01-03T08:09:11.207Z,2.22
2023-01-03T08:11:57.006Z,2.42
2023-01-03T08:14:27.245Z,2.45
2023-01-03T08:16:55.406Z,2.30
2023-01-03T08:19:22.671Z,2.40
2023-01-03T08:21:49.152Z,2.08
2023-01-03T08:24:15.691Z,2.30
2023-01-03T08:26:42.219Z,2.45
2023-01-03T08:29:08.775Z,2.22
2023-01-03T08:31:39.631Z,2.47
2023-01-03T08:34:13.568Z,2.05
2023-01-03T08:36:49.030Z,3.30
2023-01-03T08:39:18.328Z,3.15
2023-01-03T08:41:54.058Z,2.20
2023-01-03T08:44:20.534Z,2.40
2023-01-03T08:46:52.031Z,2.92
2023-01-03T08:49:19.177Z,2.33
2023-01-03T08:51:46.231Z,2.25
2023-01-03T08:54:13.048Z,2.08
2023-01-03T08:56:40.185Z,4.38
2023-01-03T08:59:07.150Z,2.00
2023-01-03T09:01:34.263Z,2.65
2023-01-03T09:04:01.058Z,4.05
2023-01-03T09:06:27.651Z,2.88
2023-01-03T09:08:54.150Z,2.20
2023-01-03T09:11:20.716Z,2.10
2023-01-03T09:13:47.294Z,2.05
2023-01-03T09:16:16.047Z,3.80
2023-01-03T09:18:42.936Z,2.67
2023-01-03T09:21:09.491Z,3.88
2023-01-03T09:23:36.309Z,4.18
2023-01-03T09:26:02.999Z,3.20
2023-01-03T09:28:29.799Z,2.67
2023-01-03T09:30:56.515Z,2.65
2023-01-03T09:33:23.176Z,2.30
2023-01-03T09:35:52.422Z,2.63
2023-01-03T09:38:19.265Z,3.20
2023-01-03T09:40:46.616Z,2.85
2023-01-03T09:43:23.070Z,3.28
2023-01-03T09:45:55.212Z,2.95
2023-01-03T09:48:36.550Z,2.58
2023-01-03T09:51:19.509Z,2.58
2023-01-03T09:54:05.998Z,2.40
2023-01-03T09:56:32.547Z,4.07
2023-01-03T09:59:19.675Z,2.47
2023-01-03T10:02:31.738Z,3.95
2023-01-03T10:05:40.463Z,2.58
2023-01-03T10:08:12.702Z,3.63
2023-01-03T10:10:42.284Z,5.07
2023-01-03T10:13:20.966Z,2.30
2023-01-03T10:16:07.790Z,3.15
2023-01-03T10:19:00.309Z,2.42
2023-01-03T10:21:54.960Z,3.20
2023-01-03T10:24:25.288Z,3.15
2023-01-03T10:27:08.292Z,2.78
2023-01-03T10:29:35.041Z,2.88
2023-01-03T10:32:20.287Z,2.72
2023-01-03T10:35:21.694Z,2.53
2023-01-03T10:37:51.438Z,2.33
2023-01-03T10:40:18.282Z,3.22
2023-01-03T10:42:45.530Z,3.60
2023-01-03T10:45:20.968Z,2.20
2023-01-03T10:48:12.731Z,2.17
2023-01-03T10:50:39.386Z,2.13
2023-01-03T10:53:07.455Z,5.47
2023-01-03T10:55:35.272Z,4.70
2023-01-03T10:58:03.801Z,2.60
2023-01-03T11:00:37.089Z,2.65
2023-01-03T11:03:10.173Z,2.85
2023-01-03T11:05:37.787Z,1.85
2023-01-03T11:08:11.405Z,2.33
2023-01-03T11:10:41.128Z,2.47
2023-01-03T11:13:22.763Z,2.97
2023-01-03T11:15:54.531Z,2.17
2023-01-03T11:18:21.449Z,2.35
2023-01-03T11:21:23.177Z,3.15
2023-01-03T11:24:31.772Z,2.10
2023-01-03T11:26:58.232Z,1.90
2023-01-03T11:29:33.195Z,4.15
2023-01-03T11:32:17.803Z,1.60
2023-01-03T11:35:24.082Z,2.08
2023-01-03T11:38:04.063Z,1.92
2023-01-03T11:40:37.189Z,1.67
2023-01-03T11:43:30.962Z,1.30
2023-01-03T11:46:09.685Z,1.42
2023-01-03T11:48:39.168Z,3.13
2023-01-03T11:51:16.132Z,3.65
2023-01-03T11:53:54.909Z,1.83
2023-01-03T11:56:42.985Z,3.33
2023-01-03T11:59:36.547Z,2.20
2023-01-03T12:02:40.812Z,3.20
2023-01-03T12:05:31.572Z,1.85
2023-01-03T12:08:00.617Z,2.88
2023-01-03T12:10:38.513Z,2.10
2023-01-03T12:13:39.396Z,2.17
2023-01-03T12:16:41.133Z,1.52
2023-01-03T12:19:18.991Z,2.00
2023-01-03T12:21:52.587Z,2.05
2023-01-03T12:24:26.736Z,2.10
2023-01-03T12:26:56.132Z,3.70
2023-01-03T12:29:29.303Z,2.13
2023-01-03T12:32:10.352Z,2.65
2023-01-03T12:34:47.206Z,3.00
2023-01-03T12:37:19.770Z,4.05
2023-01-03T12:39:56.484Z,2.78
2023-01-03T12:42:29.302Z,3.40
2023-01-03T12:45:20.276Z,2.90
2023-01-03T12:47:53.750Z,2.45
2023-01-03T12:50:22.578Z,3.17
2023-01-03T12:52:58.937Z,2.67
2023-01-03T12:55:36.800Z,2.20
2023-01-03T12:58:17.916Z,5.22
2023-01-03T13:00:48.295Z,3.90
2023-01-03T13:03:21.305Z,4.07
2023-01-03T13:06:43.469Z,3.38
2023-01-03T13:09:21.309Z,2.17
2023-01-03T13:11:53.585Z,2.15
2023-01-03T13:14:25.493Z,1.83
2023-01-03T13:17:06.987Z,2.10
2023-01-03T13:19:36.691Z,1.77
2023-01-03T13:22:23.396Z,3.00
2023-01-03T13:24:51.380Z,3.55
2023-01-03T13:27:20.937Z,2.75
2023-01-03T13:29:50.518Z,1.70
2023-01-03T13:32:24.315Z,1.55
2023-01-03T13:34:53.816Z,2.00
2023-01-03T13:37:32.177Z,2.42
2023-01-03T13:40:20.934Z,3.55
2023-01-03T13:42:47.590Z,1.75
2023-01-03T13:45:19.916Z,1.65
2023-01-03T13:47:49.749Z,1.75
2023-01-03T13:50:24.695Z,2.53
2023-01-03T13:53:24.977Z,1.13
2023-01-03T13:56:20.399Z,2.00
2023-01-03T13:58:50.749Z,1.35
2023-01-03T14:01:40.721Z,2.03
2023-01-03T14:04:25.830Z,2.08
2023-01-03T14:07:10.511Z,2.70
2023-01-03T14:10:01.021Z,1.50
2023-01-03T14:12:36.446Z,1.75
2023-01-03T14:15:25.460Z,2.10
2023-01-03T14:17:58.290Z,1.27
2023-01-03T14:22:54.360Z,2.17
2023-01-03T14:25:37.463Z,1.30
2023-01-03T14:28:22.568Z,4.85
2023-01-03T14:30:55.119Z,1.63
2023-01-03T14:33:30.188Z,1.33
2023-01-03T14:36:08.262Z,1.42
2023-01-03T14:38:35.717Z,1.90
2023-01-03T14:41:03.235Z,2.10
2023-01-03T14:43:32.107Z,1.75
2023-01-03T14:46:04.624Z,1.27
2023-01-03T14:48:31.158Z,1.13
2023-01-03T14:51:01.684Z,2.72
2023-01-03T14:53:29.046Z,1.45
2023-01-03T14:55:57.171Z,1.90
2023-01-03T14:58:33.758Z,2.35
2023-01-03T15:01:05.843Z,3.72
2023-01-03T15:03:38.045Z,1.88
2023-01-03T15:06:17.175Z,1.50
2023-01-03T15:08:45.074Z,2.33
2023-01-03T15:11:12.775Z,1.50
2023-01-03T15:13:48.588Z,1.60
2023-01-03T15:16:40.708Z,1.63
2023-01-03T15:19:27.477Z,1.20
2023-01-03T15:22:15.228Z,1.50
2023-01-03T15:24:46.904Z,2.22
2023-01-03T15:27:38.223Z,1.35
2023-01-03T15:30:22.369Z,1.27
2023-01-03T15:32:53.274Z,3.80
2023-01-03T15:35:40.977Z,1.90
2023-01-03T15:38:23.874Z,1.10
2023-01-03T15:40:50.885Z,1.08
2023-01-03T15:43:21.895Z,1.13
2023-01-03T15:45:55.338Z,1.80
2023-01-03T15:48:22.164Z,1.23
2023-01-03T15:50:50.735Z,0.98
2023-01-03T15:53:21.344Z,1.48
2023-01-03T15:55:49.915Z,2.15
2023-01-03T15:58:16.481Z,2.38
2023-01-03T16:00:43.154Z,1.55
2023-01-03T16:03:16.451Z,1.52
2023-01-03T16:05:43.301Z,1.35
2023-01-03T16:08:23.585Z,1.40
2023-01-03T16:10:51.358Z,2.25
2023-01-03T16:13:18.954Z,1.55
2023-01-03T16:15:45.819Z,1.20
2023-01-03T16:18:16.857Z,1.63
2023-01-03T16:20:43.463Z,1.65
2023-01-03T16:23:27.465Z,1.70
2023-01-03T16:25:54.498Z,1.20
2023-01-03T16:28:21.632Z,2.08
2023-01-03T16:30:58.162Z,1.77
2023-01-03T16:33:28.702Z,1.90
2023-01-03T16:35:55.960Z,2.20
2023-01-03T16:38:25.600Z,2.10
2023-01-03T16:40:54.637Z,1.55
2023-01-03T16:43:21.657Z,3.42
2023-01-03T16:45:48.382Z,3.15
2023-01-03T16:48:21.728Z,2.60
2023-01-03T16:50:50.905Z,2.67
2023-01-03T16:53:28.447Z,3.22
2023-01-03T16:55:56.293Z,4.20
2023-01-03T16:58:24.383Z,4.60
2023-01-03T17:00:52.938Z,2.67
2023-01-03T17:03:20.383Z,3.85
2023-01-03T17:05:48.009Z,2.78
2023-01-03T17:08:22.682Z,3.25
2023-01-03T17:10:53.796Z,2.90
2023-01-03T17:13:27.102Z,3.90
2023-01-03T17:15:55.398Z,4.63
2023-01-03T17:18:30.686Z,4.93
2023-01-03T17:21:00.301Z,4.50
2023-01-03T17:23:32.790Z,5.78
2023-01-03T17:25:59.353Z,8.85
2023-01-03T17:28:25.968Z,7.90
2023-01-03T17:30:56.586Z,6.78
2023-01-03T17:33:28.811Z,6.43
2023-01-03T17:36:00.617Z,8.40
2023-01-03T17:38:27.458Z,7.15
2023-01-03T17:40:55.413Z,5.75
2023-01-03T17:43:23.816Z,7.75
2023-01-03T17:46:14.892Z,6.95
2023-01-03T17:49:02.891Z,5.70
2023-01-03T17:51:29.414Z,6.25
2023-01-03T17:53:56.046Z,7.13
2023-01-03T17:56:22.618Z,6.35
2023-01-03T17:58:55.999Z,5.90
2023-01-03T18:01:23.099Z,5.55
2023-01-03T18:03:50.124Z,4.55
2023-01-03T18:06:20.191Z,5.80
2023-01-03T18:08:47.938Z,6.25
2023-01-03T18:11:16.860Z,6.38
2023-01-03T18:13:44.967Z,4.70
2023-01-03T18:16:20.078Z,6.57
2023-01-03T18:18:47.514Z,5.53
2023-01-03T18:21:22.700Z,5.65
2023-01-03T18:23:55.505Z,4.97
2023-01-03T18:26:22.299Z,5.20
2023-01-03T18:28:49.090Z,5.00
2023-01-03T18:31:20.073Z,4.85
2023-01-03T18:33:46.998Z,4.85
2023-01-03T18:36:31.092Z,4.85
2023-01-03T18:39:26.966Z,5.43
2023-01-03T18:41:53.703Z,7.35
2023-01-03T18:44:24.146Z,5.22
2023-01-03T18:46:51.564Z,6.85
2023-01-03T18:49:18.768Z,5.18
2023-01-03T18:51:47.300Z,4.63
